createdAt,value
2018-02-19T00:00:11.236Z,33.95
2018-02-19T00:02:38.724Z,34.60
2018-02-19T00:05:06.276Z,36.28
2018-02-19T00:07:33.786Z,37.58
2018-02-19T00:10:01.264Z,33.15
2018-02-19T00:12:28.784Z,35.00
2018-02-19T00:14:56.267Z,36.22
2018-02-19T00:17:23.777Z,33.05
2018-02-19T00:19:51.267Z,38.22
2018-02-19T00:22:19.400Z,36.35
2018-02-19T00:24:46.941Z,37.47
2018-02-19T00:27:14.491Z,33.53
2018-02-19T00:29:42.088Z,38.58
2018-02-19T00:32:09.627Z,34.53
2018-02-19T00:34:37.198Z,34.63
2018-02-19T00:37:04.695Z,40.12
2018-02-19T00:39:32.231Z,34.88
2018-02-19T00:41:59.768Z,30.90
2018-02-19T00:44:27.333Z,31.20
2018-02-19T00:46:54.841Z,34.65
2018-02-19T00:49:22.413Z,33.72
2018-02-19T00:51:50.008Z,35.20
2018-02-19T00:54:17.491Z,37.63
2018-02-19T00:56:45.688Z,34.10
2018-02-19T00:59:13.212Z,33.65
2018-02-19T01:01:40.755Z,34.63
2018-02-19T01:04:08.352Z,34.28
2018-02-19T01:06:35.866Z,35.38
2018-02-19T01:09:03.448Z,36.58
2018-02-19T01:11:31.783Z,39.67
2018-02-19T01:13:59.301Z,37.53
2018-02-19T01:16:27.423Z,37.13
2018-02-19T01:18:54.942Z,44.33
2018-02-19T01:21:22.483Z,35.85
2018-02-19T01:23:50.029Z,31.70
2018-02-19T01:26:17.527Z,35.00
2018-02-19T01:28:45.027Z,44.70
2018-02-19T01:31:12.540Z,40.80
2018-02-19T01:33:40.038Z,39.80
2018-02-19T01:36:07.536Z,36.22
2018-02-19T01:38:35.013Z,37.90
2018-02-19T01:41:02.537Z,38.53
2018-02-19T01:43:30.026Z,38.50
2018-02-19T01:45:57.527Z,39.20
2018-02-19T01:48:25.104Z,39.05
2018-02-19T01:50:52.593Z,35.80
2018-02-19T01:53:20.106Z,33.25
2018-02-19T01:55:47.597Z,43.85
2018-02-19T01:58:15.114Z,37.28
2018-02-19T02:00:42.650Z,37.85
2018-02-19T02:03:10.159Z,38.70
2018-02-19T02:05:37.656Z,38.83
2018-02-19T02:08:05.175Z,35.95
2018-02-19T02:10:32.658Z,37.25
2018-02-19T02:13:00.221Z,37.22
2018-02-19T02:15:27.728Z,37.75
2018-02-19T02:17:55.225Z,38.17
2018-02-19T02:20:22.879Z,35.53
2018-02-19T02:22:51.078Z,36.60
2018-02-19T02:25:18.617Z,37.17
2018-02-19T02:27:46.097Z,31.40
2018-02-19T02:30:13.603Z,32.88
2018-02-19T02:32:41.088Z,33.85
2018-02-19T02:35:08.598Z,35.63
2018-02-19T02:37:36.123Z,36.47
2018-02-19T02:40:03.603Z,32.97
2018-02-19T02:42:31.122Z,35.15
2018-02-19T02:44:58.644Z,32.55
2018-02-19T02:47:26.172Z,36.88
2018-02-19T02:49:53.696Z,34.33
2018-02-19T02:52:21.201Z,30.90
2018-02-19T02:54:48.683Z,36.97
2018-02-19T02:57:16.199Z,34.53
2018-02-19T02:59:43.773Z,32.58
2018-02-19T03:02:11.263Z,30.67
2018-02-19T03:04:38.980Z,30.98
2018-02-19T03:07:06.634Z,29.15
2018-02-19T03:09:34.143Z,30.70
2018-02-19T03:12:01.644Z,24.02
2018-02-19T03:14:29.730Z,25.25
2018-02-19T03:16:57.220Z,26.85
2018-02-19T03:19:24.871Z,27.17
2018-02-19T03:21:52.449Z,23.25
2018-02-19T03:24:19.987Z,29.27
2018-02-19T03:26:47.602Z,25.48
2018-02-19T03:29:15.111Z,25.45
2018-02-19T03:31:42.629Z,23.30
2018-02-19T03:34:10.116Z,25.45
2018-02-19T03:36:37.631Z,24.77
2018-02-19T03:39:05.227Z,28.48
2018-02-19T03:41:32.751Z,28.62
2018-02-19T03:44:00.264Z,27.85
2018-02-19T03:46:27.783Z,27.10
2018-02-19T03:48:55.299Z,25.88
2018-02-19T03:51:22.783Z,25.75
2018-02-19T03:53:50.301Z,26.02
2018-02-19T03:56:17.786Z,28.45
2018-02-19T03:58:45.403Z,25.62
2018-02-19T04:01:12.885Z,27.67
2018-02-19T04:03:40.425Z,26.83
2018-02-19T04:06:07.975Z,33.63
2018-02-19T04:08:35.562Z,26.50
2018-02-19T04:11:03.205Z,31.73
2018-02-19T04:13:32.098Z,29.52
2018-02-19T04:15:59.635Z,25.33
2018-02-19T04:18:27.129Z,31.67
2018-02-19T04:20:54.844Z,29.73
2018-02-19T04:23:22.339Z,27.05
2018-02-19T04:25:49.844Z,27.05
2018-02-19T04:28:17.360Z,27.48
2018-02-19T04:30:44.870Z,27.27
2018-02-19T04:33:12.428Z,35.42
2018-02-19T04:35:40.049Z,29.95
2018-02-19T04:38:07.701Z,34.70
2018-02-19T04:40:35.214Z,28.52
2018-02-19T04:43:07.339Z,25.75
2018-02-19T04:48:44.994Z,26.90
2018-02-19T04:51:12.491Z,26.40
2018-02-19T04:53:39.977Z,26.80
2018-02-19T04:56:07.683Z,31.90
2018-02-19T04:58:35.279Z,29.48
2018-02-19T05:01:02.892Z,30.05
2018-02-19T05:03:30.476Z,26.62
2018-02-19T05:05:58.015Z,28.48
2018-02-19T05:08:25.690Z,28.75
2018-02-19T05:10:57.205Z,24.83
2018-02-19T05:13:24.811Z,27.27
2018-02-19T05:15:52.971Z,30.62
2018-02-19T05:18:20.549Z,31.35
2018-02-19T05:20:48.046Z,30.45
2018-02-19T05:23:15.660Z,26.83
2018-02-19T05:25:43.143Z,30.70
2018-02-19T05:28:10.645Z,33.50
2018-02-19T05:30:38.177Z,30.35
2018-02-19T05:33:05.674Z,34.25
2018-02-19T05:35:33.165Z,32.00
2018-02-19T05:38:00.704Z,32.05
2018-02-19T05:40:28.258Z,30.83
2018-02-19T05:42:55.767Z,30.60
2018-02-19T05:45:23.421Z,30.95
2018-02-19T05:47:50.949Z,33.53
2018-02-19T05:50:18.683Z,28.67
2018-02-19T05:52:46.246Z,30.12
2018-02-19T05:55:13.761Z,30.10
2018-02-19T05:57:41.439Z,33.70
2018-02-19T06:00:08.923Z,31.17
2018-02-19T06:02:36.444Z,31.60
2018-02-19T06:05:03.933Z,33.28
2018-02-19T06:07:32.114Z,34.22
2018-02-19T06:09:59.635Z,29.95
2018-02-19T06:12:27.175Z,31.52
2018-02-19T06:14:54.647Z,32.22
2018-02-19T06:17:22.157Z,31.52
2018-02-19T06:19:49.747Z,36.05
2018-02-19T06:22:17.250Z,33.22
2018-02-19T06:24:44.894Z,34.38
2018-02-19T06:27:12.564Z,35.83
2018-02-19T06:29:40.074Z,34.63
2018-02-19T06:32:07.565Z,33.65
2018-02-19T06:34:35.071Z,38.17
2018-02-19T06:37:02.584Z,36.05
2018-02-19T06:39:30.133Z,33.00
2018-02-19T06:41:57.726Z,33.90
2018-02-19T06:44:25.226Z,37.53
2018-02-19T06:46:52.724Z,39.30
2018-02-19T06:49:20.206Z,41.05
2018-02-19T06:51:47.729Z,35.78
2018-02-19T06:54:15.208Z,35.17
2018-02-19T06:56:42.699Z,42.03
2018-02-19T07:01:43.883Z,38.15
2018-02-19T07:04:11.523Z,39.45
2018-02-19T07:06:39.011Z,37.63
2018-02-19T07:11:40.262Z,35.88
2018-02-19T07:14:07.796Z,39.85
2018-02-19T07:16:35.310Z,40.22
2018-02-19T07:19:09.742Z,38.15
2018-02-19T07:21:38.108Z,38.10
2018-02-19T07:24:05.727Z,37.65
2018-02-19T07:26:33.343Z,36.92
2018-02-19T07:29:00.819Z,36.22
2018-02-19T07:31:28.557Z,33.78
2018-02-19T07:33:56.106Z,35.15
2018-02-19T07:36:24.724Z,34.35
2018-02-19T07:38:52.249Z,30.92
2018-02-19T07:41:19.854Z,40.47
2018-02-19T07:43:47.439Z,34.97
2018-02-19T07:46:14.987Z,33.42
2018-02-19T07:48:42.572Z,38.95
2018-02-19T07:51:10.087Z,34.30
2018-02-19T07:53:41.642Z,32.60
2018-02-19T07:56:09.278Z,32.00
2018-02-19T07:58:36.784Z,35.17
2018-02-19T08:01:04.433Z,36.17
2018-02-19T08:03:31.929Z,42.25
2018-02-19T08:05:59.443Z,37.45
2018-02-19T08:08:26.930Z,38.67
2018-02-19T08:10:54.527Z,36.58
2018-02-19T08:13:22.084Z,40.30
2018-02-19T08:15:49.678Z,35.03
2018-02-19T08:18:18.029Z,34.85
2018-02-19T08:20:45.475Z,37.22
2018-02-19T08:23:12.979Z,35.03
2018-02-19T08:25:40.474Z,40.25
2018-02-19T08:28:07.984Z,41.83
2018-02-19T08:30:35.608Z,45.90
2018-02-19T08:33:03.097Z,39.08
2018-02-19T08:35:30.695Z,43.08
2018-02-19T08:37:58.275Z,41.13
2018-02-19T08:40:25.834Z,37.17
2018-02-19T08:42:53.323Z,32.95
2018-02-19T08:45:20.844Z,37.28
2018-02-19T08:47:48.323Z,35.17
2018-02-19T08:50:15.857Z,38.50
2018-02-19T08:52:43.361Z,38.20
2018-02-19T08:55:10.870Z,38.78
2018-02-19T08:57:38.363Z,37.85
2018-02-19T09:00:05.853Z,36.22
2018-02-19T09:02:33.466Z,42.67
2018-02-19T09:05:01.100Z,38.20
2018-02-19T09:07:29.525Z,34.95
2018-02-19T09:09:57.016Z,36.65
2018-02-19T09:12:24.571Z,35.60
2018-02-19T09:14:52.173Z,40.75
2018-02-19T09:17:19.738Z,36.35
2018-02-19T09:19:47.380Z,34.90
2018-02-19T09:22:14.908Z,39.15
2018-02-19T09:24:42.408Z,34.08
2018-02-19T09:27:09.898Z,41.42
2018-02-19T09:29:37.503Z,36.97
2018-02-19T09:32:04.976Z,43.03
2018-02-19T09:34:32.732Z,36.88
2018-02-19T09:37:00.228Z,35.80
2018-02-19T09:39:28.040Z,38.70
2018-02-19T09:41:55.624Z,43.67
2018-02-19T09:44:23.214Z,33.80
2018-02-19T09:46:50.763Z,31.70
2018-02-19T09:49:18.257Z,36.95
2018-02-19T09:51:45.934Z,37.20
2018-02-19T09:54:13.611Z,30.92
2018-02-19T09:56:41.276Z,38.72
2018-02-19T09:59:08.820Z,39.78
2018-02-19T10:01:36.357Z,36.30
2018-02-19T10:04:03.862Z,34.55
2018-02-19T10:06:31.394Z,35.65
2018-02-19T10:08:58.898Z,34.60
2018-02-19T10:11:26.421Z,36.60
2018-02-19T10:13:53.931Z,36.60
2018-02-19T10:16:21.428Z,33.95
2018-02-19T10:18:49.021Z,37.83
2018-02-19T10:21:16.543Z,31.05
2018-02-19T10:23:44.059Z,33.40
2018-02-19T10:26:11.544Z,34.63
2018-02-19T10:28:39.099Z,33.85
2018-02-19T10:31:06.679Z,33.58
2018-02-19T10:33:34.172Z,35.30
2018-02-19T10:36:01.698Z,33.20
2018-02-19T10:38:29.315Z,33.75
2018-02-19T10:40:56.904Z,32.70
2018-02-19T10:43:24.517Z,34.25
2018-02-19T10:45:52.114Z,32.90
2018-02-19T10:48:19.645Z,32.85
2018-02-19T10:50:47.196Z,30.33
2018-02-19T10:53:14.806Z,34.13
2018-02-19T10:55:42.290Z,34.78
2018-02-19T10:58:09.811Z,33.28
2018-02-19T11:00:43.006Z,33.50
2018-02-19T11:03:10.528Z,39.47
2018-02-19T11:05:38.011Z,37.00
2018-02-19T11:08:05.531Z,37.67
2018-02-19T11:10:33.049Z,35.97
2018-02-19T11:13:00.580Z,35.80
2018-02-19T11:15:28.067Z,36.35
2018-02-19T11:17:55.647Z,35.15
2018-02-19T11:20:23.161Z,32.28
2018-02-19T11:22:50.766Z,35.80
2018-02-19T11:25:18.321Z,31.83
2018-02-19T11:27:45.960Z,32.42
2018-02-19T11:30:13.530Z,31.58
2018-02-19T11:32:41.021Z,33.00
2018-02-19T11:35:08.640Z,36.63
2018-02-19T11:37:36.265Z,34.75
2018-02-19T11:40:03.767Z,36.90
2018-02-19T11:42:31.488Z,33.03
2018-02-19T11:44:59.048Z,33.53
2018-02-19T11:47:26.656Z,35.20
2018-02-19T11:49:54.203Z,37.03
2018-02-19T11:52:21.724Z,35.15
2018-02-19T11:54:49.209Z,33.25
2018-02-19T11:57:16.766Z,36.67
2018-02-19T11:59:44.434Z,33.15
2018-02-19T12:02:11.927Z,40.15
2018-02-19T12:04:39.605Z,36.00
2018-02-19T12:07:07.091Z,37.22
2018-02-19T12:09:34.648Z,35.60
2018-02-19T12:12:02.141Z,41.67
2018-02-19T12:14:30.357Z,32.83
2018-02-19T12:16:57.857Z,33.90
2018-02-19T12:19:25.436Z,33.08
2018-02-19T12:21:52.961Z,32.97
2018-02-19T12:24:20.626Z,30.98
2018-02-19T12:26:48.156Z,31.55
2018-02-19T12:29:15.726Z,34.28
2018-02-19T12:31:43.339Z,38.28
2018-02-19T12:34:10.919Z,32.08
2018-02-19T12:36:38.437Z,30.52
2018-02-19T12:39:06.025Z,32.17
2018-02-19T12:41:33.554Z,31.80
2018-02-19T12:44:01.099Z,34.17
2018-02-19T12:46:28.610Z,30.67
2018-02-19T12:48:56.114Z,30.52
2018-02-19T12:51:23.600Z,32.22
2018-02-19T12:53:51.217Z,29.70
2018-02-19T12:56:18.724Z,31.80
2018-02-19T12:58:46.242Z,32.83
2018-02-19T13:01:13.729Z,31.80
2018-02-19T13:03:41.372Z,29.63
2018-02-19T13:06:08.862Z,28.52
2018-02-19T13:08:36.405Z,25.40
2018-02-19T13:11:03.900Z,30.70
2018-02-19T13:13:31.397Z,26.50
2018-02-19T13:15:59.105Z,33.10
2018-02-19T13:18:26.611Z,27.50
2018-02-19T13:20:54.144Z,33.45
2018-02-19T13:23:21.642Z,28.58
2018-02-19T13:25:49.286Z,29.83
2018-02-19T13:28:16.790Z,33.33
2018-02-19T13:30:44.292Z,29.63
2018-02-19T13:33:11.810Z,27.62
2018-02-19T13:35:39.402Z,28.85
2018-02-19T13:38:07.524Z,34.22
2018-02-19T13:40:35.020Z,35.22
2018-02-19T13:43:02.527Z,34.42
2018-02-19T13:45:30.120Z,34.88
2018-02-19T13:47:57.640Z,32.38
2018-02-19T13:50:25.140Z,33.85
2018-02-19T13:52:52.728Z,34.05
2018-02-19T13:55:20.256Z,33.22
2018-02-19T13:57:47.902Z,36.75
2018-02-19T14:00:15.520Z,36.00
2018-02-19T14:02:43.220Z,37.53
2018-02-19T14:05:10.753Z,33.45
2018-02-19T14:07:38.286Z,38.15
2018-02-19T14:10:05.830Z,32.15
2018-02-19T14:12:33.324Z,32.03
2018-02-19T14:15:00.846Z,29.27
2018-02-19T14:17:28.397Z,29.60
2018-02-19T14:19:55.939Z,28.15
2018-02-19T14:22:23.486Z,29.58
2018-02-19T14:24:51.121Z,28.80
2018-02-19T14:27:18.646Z,29.10
2018-02-19T14:29:46.160Z,32.28
2018-02-19T14:32:14.271Z,31.27
2018-02-19T14:34:41.790Z,31.17
2018-02-19T14:37:09.451Z,36.00
2018-02-19T14:39:37.967Z,32.72
2018-02-19T14:42:05.559Z,29.08
2018-02-19T14:44:33.111Z,28.38
2018-02-19T14:47:00.729Z,30.67
2018-02-19T14:49:28.404Z,30.17
2018-02-19T14:51:55.914Z,31.50
2018-02-19T14:54:23.555Z,31.73
2018-02-19T14:56:51.102Z,28.23
2018-02-19T14:59:18.917Z,34.65
2018-02-19T15:01:46.279Z,33.00
2018-02-19T15:04:13.808Z,31.55
2018-02-19T15:06:41.381Z,34.80
2018-02-19T15:09:08.874Z,35.92
2018-02-19T15:11:36.399Z,32.47
2018-02-19T15:14:03.892Z,48.58
2018-02-19T15:16:32.201Z,35.58
2018-02-19T15:18:59.773Z,30.37
2018-02-19T15:21:27.302Z,35.33
2018-02-19T15:23:54.833Z,30.77
2018-02-19T15:26:22.334Z,33.05
2018-02-19T15:28:49.856Z,28.48
2018-02-19T15:31:17.396Z,29.98
2018-02-19T15:33:44.993Z,29.92
2018-02-19T15:36:12.615Z,33.58
2018-02-19T15:38:40.132Z,33.08
2018-02-19T15:41:07.719Z,40.15
2018-02-19T15:43:35.258Z,31.25
2018-02-19T15:46:02.754Z,29.80
2018-02-19T15:48:30.296Z,31.15
2018-02-19T15:50:57.839Z,33.30
2018-02-19T15:53:25.371Z,31.67
2018-02-19T15:55:53.062Z,35.40
2018-02-19T15:58:20.576Z,37.53
2018-02-19T16:00:48.072Z,35.70
2018-02-19T16:03:15.654Z,33.72
2018-02-19T16:05:43.191Z,37.03
2018-02-19T16:08:10.767Z,34.75
2018-02-19T16:10:38.923Z,39.17
2018-02-19T16:13:06.430Z,39.67
2018-02-19T16:15:33.963Z,39.03
2018-02-19T16:18:01.515Z,34.63
2018-02-19T16:20:29.043Z,37.05
2018-02-19T16:22:56.595Z,33.92
2018-02-19T16:25:24.118Z,36.30
2018-02-19T16:27:51.645Z,54.03
2018-02-19T16:30:19.697Z,38.88
2018-02-19T16:32:47.222Z,38.38
2018-02-19T16:35:14.731Z,39.90
2018-02-19T16:37:42.250Z,46.17
2018-02-19T16:40:09.818Z,46.30
2018-02-19T16:42:37.373Z,39.08
2018-02-19T16:45:05.003Z,47.22
2018-02-19T16:47:32.621Z,53.50
2018-02-19T16:50:00.200Z,62.60
2018-02-19T16:52:27.795Z,45.00
2018-02-19T16:54:55.343Z,42.38
2018-02-19T16:57:22.924Z,41.13
2018-02-19T16:59:50.450Z,39.40
2018-02-19T17:02:17.951Z,35.85
2018-02-19T17:04:45.465Z,38.17
2018-02-19T17:07:13.546Z,35.28
2018-02-19T17:09:41.079Z,34.95
2018-02-19T17:12:08.745Z,38.38
2018-02-19T17:14:36.237Z,37.70
2018-02-19T17:17:03.750Z,45.12
2018-02-19T17:19:31.235Z,41.42
2018-02-19T17:21:58.856Z,49.35
2018-02-19T17:24:26.385Z,37.30
2018-02-19T17:26:54.498Z,46.72
2018-02-19T17:29:22.031Z,40.17
2018-02-19T17:31:49.589Z,51.58
2018-02-19T17:34:17.100Z,42.97
2018-02-19T17:36:44.781Z,42.00
2018-02-19T17:39:12.297Z,46.25
2018-02-19T17:41:39.791Z,42.67
2018-02-19T17:44:07.334Z,45.08
2018-02-19T17:46:34.861Z,45.65
2018-02-19T17:49:02.389Z,45.88
2018-02-19T17:51:29.894Z,43.30
2018-02-19T17:53:57.419Z,42.42
2018-02-19T17:56:25.187Z,42.65
2018-02-19T17:58:52.854Z,42.38
2018-02-19T18:01:20.519Z,43.03
2018-02-19T18:03:48.040Z,61.37
2018-02-19T18:06:15.581Z,54.85
2018-02-19T18:08:43.182Z,49.00
2018-02-19T18:11:10.721Z,49.90
2018-02-19T18:13:38.310Z,45.05
2018-02-19T18:16:05.849Z,51.50
2018-02-19T18:18:33.458Z,51.05
2018-02-19T18:21:00.964Z,47.20
2018-02-19T18:23:28.492Z,46.50
2018-02-19T18:25:56.886Z,52.22
2018-02-19T18:28:24.370Z,51.83
2018-02-19T18:30:51.906Z,46.67
2018-02-19T18:33:19.404Z,53.87
2018-02-19T18:35:46.940Z,48.97
2018-02-19T18:38:14.450Z,53.00
2018-02-19T18:40:41.981Z,44.95
2018-02-19T18:43:09.480Z,49.90
2018-02-19T18:45:37.051Z,58.42
2018-02-19T18:48:04.584Z,45.78
2018-02-19T18:50:32.121Z,67.05
2018-02-19T18:52:59.671Z,52.62
2018-02-19T18:55:27.160Z,44.08
2018-02-19T18:57:54.710Z,48.30
2018-02-19T19:00:22.334Z,44.85
2018-02-19T19:02:49.851Z,49.90
2018-02-19T19:05:17.368Z,49.75
2018-02-19T19:07:56.664Z,47.22
2018-02-19T19:13:27.490Z,48.47
2018-02-19T19:15:55.038Z,43.15
2018-02-19T19:18:22.674Z,44.70
2018-02-19T19:20:50.203Z,50.60
2018-02-19T19:23:17.855Z,48.92
2018-02-19T19:25:45.420Z,50.38
2018-02-19T19:28:12.961Z,48.03
2018-02-19T19:30:40.518Z,54.67
2018-02-19T19:33:08.009Z,49.58
2018-02-19T19:35:35.573Z,50.28
2018-02-19T19:38:03.093Z,52.15
2018-02-19T19:40:30.601Z,54.47
2018-02-19T19:42:58.137Z,54.53
2018-02-19T19:45:26.272Z,51.47
2018-02-19T19:47:54.027Z,48.10
2018-02-19T19:50:21.559Z,51.13
2018-02-19T19:52:49.086Z,51.63
2018-02-19T19:55:16.602Z,51.63
2018-02-19T19:57:44.131Z,51.25
2018-02-19T20:00:11.644Z,55.45
2018-02-19T20:02:39.170Z,63.83
2018-02-19T20:05:06.701Z,61.08
2018-02-19T20:07:34.185Z,61.15
2018-02-19T20:10:01.777Z,54.60
2018-02-19T20:12:29.305Z,52.10
2018-02-19T20:14:56.817Z,49.60
2018-02-19T20:17:24.342Z,53.83
2018-02-19T20:19:51.919Z,56.30
2018-02-19T20:22:19.442Z,50.12
2018-02-19T20:24:46.951Z,57.67
2018-02-19T20:27:14.467Z,60.60
2018-02-19T20:29:42.190Z,51.37
2018-02-19T20:32:09.805Z,56.17
2018-02-19T20:34:37.341Z,49.20
2018-02-19T20:37:04.867Z,53.05
2018-02-19T20:39:32.543Z,58.72
2018-02-19T20:42:00.102Z,54.40
2018-02-19T20:44:27.647Z,53.90
2018-02-19T20:46:55.159Z,54.10
2018-02-19T20:49:22.711Z,51.55
2018-02-19T20:51:50.215Z,51.25
2018-02-19T20:54:17.713Z,48.92
2018-02-19T20:56:45.235Z,55.08
2018-02-19T20:59:12.752Z,49.92
2018-02-19T21:01:40.329Z,56.37
2018-02-19T21:04:07.872Z,51.78
2018-02-19T21:06:35.407Z,50.88
2018-02-19T21:09:02.992Z,52.95
2018-02-19T21:11:30.499Z,53.80
2018-02-19T21:13:58.023Z,57.90
2018-02-19T21:16:26.168Z,55.22
2018-02-19T21:18:53.689Z,49.22
2018-02-19T21:21:21.202Z,51.10
2018-02-19T21:23:48.876Z,53.33
2018-02-19T21:26:16.416Z,57.67
2018-02-19T21:28:43.978Z,53.03
2018-02-19T21:31:11.564Z,53.67
2018-02-19T21:33:39.070Z,53.80
2018-02-19T21:36:06.709Z,55.47
2018-02-19T21:38:34.208Z,57.30
2018-02-19T21:41:05.556Z,49.78
2018-02-19T21:43:33.066Z,54.03
2018-02-19T21:46:00.601Z,49.72
2018-02-19T21:48:28.154Z,48.05
2018-02-19T21:50:55.656Z,52.88
2018-02-19T21:53:23.183Z,53.83
2018-02-19T21:55:50.666Z,53.03
2018-02-19T21:58:18.174Z,50.83
2018-02-19T22:00:45.661Z,59.92
2018-02-19T22:03:13.239Z,57.25
2018-02-19T22:05:40.800Z,54.15
2018-02-19T22:08:08.333Z,58.15
2018-02-19T22:10:35.838Z,56.95
2018-02-19T22:13:03.387Z,56.08
2018-02-19T22:15:31.044Z,58.72
2018-02-19T22:17:58.678Z,47.47
2018-02-19T22:20:26.283Z,53.53
2018-02-19T22:22:53.867Z,51.47
2018-02-19T22:25:21.529Z,56.53
2018-02-19T22:27:49.065Z,53.97
2018-02-19T22:30:16.584Z,49.10
2018-02-19T22:32:44.098Z,52.70
2018-02-19T22:35:11.601Z,52.30
2018-02-19T22:37:39.098Z,54.70
2018-02-19T22:40:06.608Z,55.65
2018-02-19T22:42:34.139Z,60.72
2018-02-19T22:45:01.653Z,52.75
2018-02-19T22:47:29.131Z,54.78
2018-02-19T22:49:56.645Z,54.15
2018-02-19T22:52:24.150Z,57.50
2018-02-19T22:54:52.496Z,59.08
2018-02-19T22:57:20.175Z,54.97
2018-02-19T22:59:47.775Z,58.17
2018-02-19T23:02:15.285Z,58.17
2018-02-19T23:04:42.812Z,60.85
2018-02-19T23:07:10.407Z,57.90
2018-02-19T23:09:38.213Z,57.55
2018-02-19T23:12:05.736Z,57.35
2018-02-19T23:14:33.248Z,60.08
2018-02-19T23:17:00.774Z,54.45
2018-02-19T23:19:28.303Z,56.97
2018-02-19T23:21:55.821Z,57.62
2018-02-19T23:24:23.345Z,56.72
2018-02-19T23:26:50.864Z,56.80
2018-02-19T23:29:18.374Z,54.92
2018-02-19T23:31:46.486Z,56.03
2018-02-19T23:34:14.154Z,58.38
2018-02-19T23:36:41.674Z,61.80
2018-02-19T23:39:09.658Z,52.28
2018-02-19T23:41:37.515Z,51.95
2018-02-19T23:44:05.075Z,55.00
2018-02-19T23:46:33.237Z,59.65
2018-02-19T23:49:00.742Z,55.20
2018-02-19T23:51:28.246Z,54.33
2018-02-19T23:53:55.761Z,55.85
2018-02-19T23:56:23.282Z,58.30
2018-02-19T23:58:50.799Z,55.90
